Time;durP1;ratioP1;P1;durP2;ratioP2;P2;SDS_P1;SDS_P2;PMS_P1;PMS_P2;Temp;Humidity;BMP_temperature;BMP_pressure;BME280_temperature;BME280_humidity;BME280_pressure;Samples;Min_cycle;Max_cycle;Signal;HPM_P1;HPM_P2
2024/03/11 00:01:04;;;;;;;18.13;14.87;;;6.90;99.90;;;-141.84;100.00;103517.56;5051216;28;20320;-69
2024/03/11 00:03:34;;;;;;;20.37;15.87;;;7.00;99.90;;;-141.84;100.00;103517.56;5042719;28;20193;-70
2024/03/11 00:06:04;;;;;;;18.03;14.83;;;7.00;99.90;;;-141.84;100.00;103517.56;5022782;28;20207;-70
2024/03/11 00:08:34;;;;;;;24.37;17.30;;;7.00;99.90;;;-141.84;100.00;105909.34;5019076;28;20756;-70
2024/03/11 00:11:04;;;;;;;19.30;15.50;;;7.00;99.90;;;-141.84;100.00;104580.41;5027960;28;20646;-68
2024/03/11 00:13:33;;;;;;;18.60;14.13;;;7.00;99.90;;;-141.84;98.62;98738.19;5027061;28;20317;-69
2024/03/11 00:16:06;;;;;;;19.23;15.13;;;7.10;99.90;;;-141.84;99.73;100330.69;5030909;28;20225;-69
2024/03/11 00:18:34;;;;;;;17.47;14.90;;;7.10;99.90;;;-141.84;100.00;104048.94;5020351;28;20198;-68
2024/03/11 00:21:05;;;;;;;20.50;15.13;;;7.10;99.90;;;-141.84;100.00;105377.72;5025513;28;20249;-69
2024/03/11 00:23:33;;;;;;;17.67;14.37;;;7.10;99.90;;;-141.84;100.00;104580.41;5021695;28;20226;-68
2024/03/11 00:26:02;;;;;;;17.33;14.63;;;7.10;99.90;;;-141.84;100.00;105643.53;5016072;28;20222;-68
2024/03/11 00:28:31;;;;;;;16.47;14.40;;;7.10;99.90;;;-141.84;100.00;106706.94;5019349;28;20219;-69
2024/03/11 00:31:01;;;;;;;17.30;14.67;;;7.00;99.90;;;-141.84;100.00;104580.41;5016271;28;20234;-67
2024/03/11 00:33:29;;;;;;;18.60;14.60;;;7.10;99.90;;;-141.84;100.00;104314.66;5026979;28;20653;-67
2024/03/11 00:35:58;;;;;;;17.70;15.03;;;7.10;99.90;;;-141.84;100.00;104846.16;5018541;28;20218;-67
2024/03/11 00:38:29;;;;;;;17.77;14.77;;;7.10;99.90;;;-141.84;100.00;106706.94;5014331;28;20277;-68
2024/03/11 00:40:57;;;;;;;20.73;16.00;;;7.10;99.90;;;-141.84;100.00;107504.66;5017188;28;20330;-67
2024/03/11 00:43:25;;;;;;;19.97;15.67;;;7.10;99.90;;;-141.84;100.00;102189.38;5023181;28;20234;-68
2024/03/11 00:45:53;;;;;;;17.70;15.00;;;7.20;99.90;;;-141.84;99.91;101127.16;5020002;28;20309;-69
2024/03/11 00:48:22;;;;;;;17.27;14.60;;;7.20;99.90;;;-141.84;100.00;104048.94;5019235;28;20199;-67
2024/03/11 00:50:53;;;;;;;16.70;13.90;;;7.20;99.90;;;-141.84;100.00;105909.34;5020681;28;20225;-69
2024/03/11 00:53:22;;;;;;;18.10;14.70;;;7.20;99.90;;;-141.84;100.00;105643.53;5020619;28;20303;-69
2024/03/11 00:55:52;;;;;;;18.43;14.93;;;7.20;99.90;;;-141.84;100.00;107238.72;5020027;28;20241;-67
2024/03/11 00:58:21;;;;;;;20.23;15.97;;;7.20;99.90;;;-141.84;100.00;108834.56;5017600;28;20969;-67
2024/03/11 01:00:50;;;;;;;17.77;14.00;;;7.20;99.90;;;-141.84;100.00;109366.66;5017397;28;20658;-68
2024/03/11 01:03:19;;;;;;;18.23;14.63;;;7.10;99.90;;;-141.84;100.00;109366.66;5018628;28;20209;-68
2024/03/11 01:05:47;;;;;;;19.03;14.90;;;7.20;99.90;;;-141.84;100.00;109100.59;5019944;28;20279;-69
2024/03/11 01:08:16;;;;;;;17.83;13.97;;;7.10;99.90;;;-141.84;100.00;109366.66;5011366;28;20790;-68
2024/03/11 01:10:47;;;;;;;18.27;14.23;;;7.10;99.90;;;-141.84;100.00;109632.72;5020230;28;20230;-69
2024/03/11 01:13:18;;;;;;;19.07;14.67;;;7.10;99.90;;;-141.84;100.00;109632.72;5023859;28;20777;-68
2024/03/11 01:15:48;;;;;;;17.60;14.40;;;7.10;99.90;;;-141.84;100.00;110431.03;5020404;28;20217;-68
2024/03/11 01:18:16;;;;;;;18.77;14.47;;;7.10;99.90;;;-141.84;100.00;110963.31;5023254;28;20193;-69
2024/03/11 01:20:45;;;;;;;17.23;14.37;;;7.10;99.90;;;-141.84;100.00;111495.69;5020953;28;20234;-68
2024/03/11 01:23:13;;;;;;;18.67;13.93;;;7.00;99.90;;;-141.84;100.00;110963.31;5020033;28;20656;-70
2024/03/11 01:25:41;;;;;;;18.43;14.63;;;7.00;99.90;;;-141.84;100.00;111229.50;5025982;28;20217;-69
2024/03/11 01:28:10;;;;;;;20.07;14.40;;;7.10;99.90;;;-141.84;100.00;112294.34;5019640;28;20800;-69
2024/03/11 01:30:41;;;;;;;17.40;14.07;;;7.10;99.90;;;-141.84;100.00;113359.50;5029916;28;20635;-68
2024/03/11 01:33:12;;;;;;;18.60;15.27;;;7.00;99.90;;;-141.84;100.00;113625.81;5053657;28;20654;-68
2024/03/11 01:35:41;;;;;;;19.47;15.17;;;7.10;99.90;;;-141.84;100.00;113093.19;5051140;28;20221;-69
2024/03/11 01:38:10;;;;;;;21.43;15.50;;;7.10;99.90;;;-141.84;100.00;110963.31;5038827;28;20218;-68
2024/03/11 01:40:38;;;;;;;18.40;14.97;;;7.20;99.90;;;-141.84;100.00;108568.56;5029216;28;20689;-69
2024/03/11 01:43:11;;;;;;;17.40;13.93;;;7.20;99.90;;;-141.84;100.00;107504.66;5001209;28;20234;-68
2024/03/11 01:45:40;;;;;;;19.47;16.13;;;7.20;99.90;;;-141.84;100.00;108036.56;5033200;28;20221;-68
2024/03/11 01:48:10;;;;;;;20.10;14.93;;;7.20;99.90;;;-141.84;100.00;110164.91;5019999;28;20687;-73
2024/03/11 01:50:39;;;;;;;18.53;15.07;;;7.20;99.90;;;-141.84;100.00;110697.16;5027836;28;20226;-70
2024/03/11 01:53:09;;;;;;;19.83;16.07;;;7.20;99.90;;;-141.84;100.00;113093.19;5027443;28;20229;-68
2024/03/11 01:55:38;;;;;;;20.80;16.07;;;7.10;99.90;;;-141.84;100.00;112826.88;5021332;28;20305;-68
2024/03/11 01:58:09;;;;;;;17.80;15.60;;;7.10;99.90;;;-141.84;100.00;113359.50;5029967;28;20268;-68
2024/03/11 02:00:41;;;;;;;19.27;14.97;;;7.10;99.90;;;-141.84;100.00;115490.59;5029215;28;20231;-69
2024/03/11 02:03:09;;;;;;;17.03;14.97;;;7.00;99.90;;;-141.84;100.00;117356.25;5032510;28;20240;-68
2024/03/11 02:05:40;;;;;;;18.83;15.80;;;6.90;99.90;;;-141.84;100.00;118156.06;5030724;28;20250;-68
2024/03/11 02:08:09;;;;;;;17.20;15.07;;;6.90;99.90;;;-141.84;100.00;118689.38;5017310;28;20231;-68
2024/03/11 02:10:38;;;;;;;18.50;15.93;;;6.90;99.90;;;-141.84;100.00;119222.75;5021704;28;20285;-69
2024/03/11 02:13:07;;;;;;;19.80;15.57;;;6.90;99.90;;;-141.84;100.00;115224.16;5024526;28;20700;-69
2024/03/11 02:15:35;;;;;;;20.97;16.87;;;7.00;99.90;;;-141.84;100.00;109366.66;5031192;28;20204;-68
2024/03/11 02:18:06;;;;;;;20.73;17.50;;;7.10;99.90;;;-141.84;99.27;101127.16;5027240;28;20272;-68
2024/03/11 02:20:38;;;;;;;20.37;15.87;;;7.20;99.90;;;-141.84;100.00;102986.25;5025369;28;20607;-67
2024/03/11 02:23:08;;;;;;;22.40;17.23;;;7.20;99.90;;;-141.84;100.00;109366.66;5027370;28;20316;-69
2024/03/11 02:25:37;;;;;;;21.07;17.33;;;7.20;99.90;;;-141.84;100.00;110431.03;5026459;28;20218;-68
2024/03/11 02:28:06;;;;;;;20.60;17.47;;;7.30;99.90;;;-141.84;100.00;113625.81;5030777;28;21598;-68
2024/03/11 02:30:35;;;;;;;21.57;17.60;;;7.30;99.90;;;-141.84;100.00;114957.72;5028907;28;20230;-69
2024/03/11 02:33:03;;;;;;;19.67;16.87;;;7.30;99.90;;;-141.84;100.00;115490.59;5032735;28;20194;-68
2024/03/11 02:35:32;;;;;;;20.30;16.87;;;7.20;99.90;;;-141.84;100.00;116556.59;5030292;28;20317;-67
2024/03/11 02:38:00;;;;;;;21.67;17.03;;;7.30;99.90;;;-141.84;100.00;117356.25;5024400;28;20230;-67
2024/03/11 02:40:31;;;;;;;21.73;18.37;;;7.20;99.90;;;-141.84;100.00;117089.69;5029483;28;20397;-67
2024/03/11 02:43:00;;;;;;;21.60;17.30;;;7.20;99.90;;;-141.84;100.00;116823.13;5031142;28;20230;-69
2024/03/11 02:45:30;;;;;;;22.80;18.10;;;7.20;99.90;;;-141.84;100.00;113359.50;5023496;28;20198;-68
2024/03/11 02:47:59;;;;;;;23.13;18.20;;;7.20;99.90;;;-141.84;100.00;107504.66;5016726;28;20218;-68
2024/03/11 02:50:28;;;;;;;22.10;17.50;;;7.30;99.90;;;-141.84;100.00;107238.72;5024816;28;20226;-68
2024/03/11 02:52:56;;;;;;;22.57;18.30;;;7.30;99.90;;;-141.84;100.00;107504.66;5023741;28;20219;-68
2024/03/11 02:55:25;;;;;;;22.10;18.60;;;7.30;99.90;;;-141.84;100.00;106175.19;5029343;28;20229;-69
2024/03/11 02:57:54;;;;;;;22.43;17.73;;;7.30;99.90;;;-141.84;100.00;106441.06;5026898;28;20968;-68
2024/03/11 03:00:23;;;;;;;21.57;18.07;;;7.30;99.90;;;-141.84;100.00;108568.56;5026596;28;20300;-68
2024/03/11 03:02:53;;;;;;;23.10;18.87;;;7.30;99.90;;;-141.84;100.00;108834.56;5030724;28;20235;-68
2024/03/11 03:05:22;;;;;;;22.37;18.00;;;7.30;99.90;;;-141.84;100.00;108568.56;5018607;28;20558;-69
2024/03/11 03:07:50;;;;;;;20.73;18.47;;;7.40;99.90;;;-141.84;100.00;104314.66;5012377;28;20699;-69
2024/03/11 03:10:19;;;;;;;22.67;18.10;;;7.30;99.90;;;-141.84;100.00;103783.25;5021444;28;20230;-68
2024/03/11 03:12:49;;;;;;;24.50;19.63;;;7.40;99.90;;;-141.84;100.00;105377.72;5020701;28;20349;-69
2024/03/11 03:15:19;;;;;;;22.20;18.20;;;7.30;99.90;;;-141.84;95.33;92639.44;5021991;28;20202;-68
2024/03/11 03:17:47;;;;;;;21.90;18.60;;;7.40;99.90;;;-141.84;94.72;88137.56;5024960;28;20221;-67
2024/03/11 03:20:18;;;;;;;24.43;18.47;;;7.40;99.90;;;-141.84;94.97;88931.63;5025306;28;20229;-67
2024/03/11 03:22:46;;;;;;;24.93;18.93;;;7.40;99.90;;;-141.84;95.90;91844.63;5025877;28;20227;-69
2024/03/11 03:25:15;;;;;;;23.57;19.10;;;7.30;99.90;;;-141.84;94.38;88666.94;5026453;28;20296;-68
2024/03/11 03:27:43;;;;;;;24.80;20.03;;;7.30;99.90;;;-141.84;92.67;83376.34;5024191;28;20256;-68
2024/03/11 03:30:15;;;;;;;25.83;20.07;;;7.40;99.90;;;-141.84;94.46;86549.84;5022532;28;20238;-68
2024/03/11 03:32:45;;;;;;;25.27;19.60;;;7.30;99.90;;;-141.84;98.93;98472.84;5029577;28;20218;-68
2024/03/11 03:35:13;;;;;;;27.27;20.70;;;7.20;99.90;;;-141.84;98.21;97676.88;5028840;28;20567;-69
2024/03/11 03:37:42;;;;;;;25.00;18.87;;;7.20;99.90;;;-141.84;96.07;92374.47;5025700;28;20226;-59
2024/03/11 03:40:15;;;;;;;26.23;21.07;;;7.20;99.90;;;-141.84;98.96;98472.84;5025283;28;20273;-59
2024/03/11 03:42:47;;;;;;;25.63;20.93;;;7.10;99.90;;;-141.84;96.70;94229.53;5025266;28;20218;-61
2024/03/11 03:45:17;;;;;;;23.73;20.70;;;7.10;99.90;;;-141.84;95.34;91844.63;5026927;28;20202;-60
2024/03/11 03:47:47;;;;;;;27.23;21.70;;;7.10;99.90;;;-141.84;93.92;85491.75;5023413;28;20218;-58
2024/03/11 03:50:16;;;;;;;26.07;20.77;;;7.10;99.90;;;-141.84;96.49;92904.41;5017564;28;20244;-59
2024/03/11 03:52:45;;;;;;;27.00;21.40;;;7.00;99.90;;;-141.84;94.87;89461.13;5029556;28;20304;-59
2024/03/11 03:55:14;;;;;;;27.90;22.27;;;7.00;99.90;;;-141.84;90.34;74134.56;5028978;28;20241;-60
2024/03/11 03:57:44;;;;;;;30.97;21.90;;;7.20;99.90;;;-141.84;89.31;70443.78;5025520;28;20244;-60
2024/03/11 04:00:17;;;;;;;29.23;21.70;;;;;;;-141.84;89.04;68072.97;5025540;28;20213;-59
2024/03/11 04:02:49;;;;;;;31.73;22.97;;;7.20;99.90;;;-141.84;89.65;70180.31;5026539;28;21141;-59
2024/03/11 04:05:21;;;;;;;28.67;22.37;;;7.20;99.90;;;-141.84;91.55;75981.22;5024179;28;20297;-60
2024/03/11 04:07:50;;;;;;;27.90;23.30;;;7.10;99.90;;;-141.84;94.22;86285.31;5019710;28;20218;-60
2024/03/11 04:10:19;;;;;;;32.60;24.27;;;7.00;99.90;;;-141.84;92.24;80469.50;5023524;28;20286;-60
2024/03/11 04:12:50;;;;;;;35.50;23.83;;;7.10;99.90;;;-141.84;94.23;86285.31;5028686;28;20291;-60
2024/03/11 04:15:21;;;;;;;34.07;23.97;;;7.10;99.90;;;-141.84;93.14;84169.50;5028113;28;20193;-59
2024/03/11 04:17:54;;;;;;;29.93;23.30;;;7.10;99.90;;;-141.84;92.91;83376.34;5024233;28;20277;-59
2024/03/11 04:20:27;;;;;;;29.33;22.63;;;7.10;99.90;;;-141.84;93.95;86020.75;5028853;28;20230;-59
2024/03/11 04:22:56;;;;;;;30.30;22.47;;;7.10;99.90;;;-141.84;95.42;90520.28;5021384;28;20247;-59
2024/03/11 04:25:28;;;;;;;30.47;23.07;;;7.10;99.90;;;-141.84;95.64;90255.47;5018418;28;20779;-60
2024/03/11 04:27:59;;;;;;;32.47;24.13;;;7.00;99.90;;;-141.84;100.00;101127.16;5028124;28;20226;-59
2024/03/11 04:30:32;;;;;;;32.63;23.67;;;6.90;99.90;;;-141.84;100.00;106972.81;5027002;28;20195;-59
2024/03/11 04:33:02;;;;;;;29.97;23.23;;;6.80;99.90;;;-141.84;100.00;105643.53;5048615;28;20221;-59
2024/03/11 04:35:33;;;;;;;29.03;23.47;;;6.80;99.90;;;-141.84;98.58;99534.38;5048201;28;20217;-59
2024/03/11 04:38:04;;;;;;;29.63;24.63;;;6.90;99.90;;;-141.84;97.24;95289.94;5040600;28;20295;-59
2024/03/11 04:40:35;;;;;;;31.23;23.33;;;7.00;99.90;;;-141.84;97.15;95024.81;5040597;28;20225;-59
2024/03/11 04:43:04;;;;;;;31.13;23.90;;;7.10;99.90;;;-141.84;96.60;93699.44;5037530;28;20230;-60
2024/03/11 04:45:33;;;;;;;30.70;24.90;;;7.10;99.90;;;-141.84;98.44;99003.56;5035193;28;20694;-60
2024/03/11 04:48:05;;;;;;;29.77;23.60;;;7.10;99.90;;;-141.84;98.40;97676.88;5039333;28;20205;-59
2024/03/11 04:50:37;;;;;;;31.77;24.13;;;7.10;99.90;;;-141.84;95.35;92904.41;5039149;28;20229;-60
2024/03/11 04:53:11;;;;;;;29.00;23.77;;;7.00;99.90;;;-141.84;94.53;88666.94;5042534;28;20225;-60
2024/03/11 04:55:40;;;;;;;31.57;24.13;;;7.20;99.90;;;-141.84;93.92;86020.75;5048342;28;20225;-59
2024/03/11 04:58:09;;;;;;;31.93;23.37;;;7.20;99.90;;;-141.84;96.72;93434.41;5040351;28;20238;-60
2024/03/11 05:00:37;;;;;;;33.50;23.67;;;7.20;99.90;;;-141.84;98.29;97942.19;5047969;28;20251;-60
2024/03/11 05:03:07;;;;;;;29.50;24.40;;;7.20;99.90;;;-141.84;96.42;94494.59;5049455;28;20311;-60
2024/03/11 05:05:36;;;;;;;29.20;23.53;;;7.30;99.90;;;-141.84;95.12;91579.72;5048620;28;20240;-60
2024/03/11 05:08:06;;;;;;;30.80;22.73;;;7.30;99.90;;;-141.84;93.72;87872.91;5046316;28;20221;-60
2024/03/11 05:10:35;;;;;;;29.77;22.87;;;7.40;99.90;;;-141.84;89.61;72288.75;5049817;28;20693;-60
2024/03/11 05:13:04;;;;;;;28.53;23.10;;;7.50;99.90;;;-141.84;89.25;69389.94;5046602;28;20290;-59
2024/03/11 05:15:33;;;;;;;27.63;21.80;;;7.60;99.90;;;-141.84;92.13;79412.97;5044195;28;20208;-60
2024/03/11 05:18:01;;;;;;;27.83;21.93;;;7.60;99.90;;;-141.84;92.65;82054.78;5048256;28;20213;-62
2024/03/11 05:20:32;;;;;;;26.73;22.60;;;7.60;99.90;;;-141.84;91.69;80205.34;5051379;28;20247;-60
2024/03/11 05:23:00;;;;;;;28.47;23.03;;;7.60;99.90;;;-141.84;90.27;74662.09;5052568;28;20225;-60
2024/03/11 05:25:29;;;;;;;26.80;21.13;;;7.70;99.90;;;-141.84;91.51;79677.06;5047545;28;20282;-60
2024/03/11 05:27:58;;;;;;;26.87;21.57;;;7.70;99.90;;;-141.84;89.59;70970.84;5051327;28;20229;-59
2024/03/11 05:30:27;;;;;;;26.93;21.20;;;7.80;99.90;;;-141.84;88.70;67809.63;5050645;28;20202;-60
2024/03/11 05:32:56;;;;;;;27.53;20.43;;;7.80;99.90;;;-141.84;91.54;77828.72;5046066;28;20217;-59
2024/03/11 05:35:25;;;;;;;27.10;20.73;;;7.70;99.90;;;-141.84;93.60;85491.75;5046700;28;20229;-59
2024/03/11 05:37:55;;;;;;;25.70;20.93;;;7.60;99.90;;;-141.84;93.46;85756.25;5046460;28;20256;-60
2024/03/11 05:40:24;;;;;;;27.90;21.90;;;7.60;99.90;;;-141.84;94.26;89196.38;5049409;28;20229;-60
2024/03/11 05:42:55;;;;;;;26.83;21.40;;;7.90;99.90;;;-141.84;93.83;86285.31;5043989;28;20571;-68
2024/03/11 05:45:24;;;;;;;27.10;21.40;;;7.60;99.90;;;-141.84;94.95;89990.66;5050439;28;20252;-59
2024/03/11 05:47:52;;;;;;;26.37;20.33;;;7.60;99.90;;;-141.84;96.53;93699.44;5048845;28;20225;-60
2024/03/11 05:50:24;;;;;;;25.87;20.03;;;7.60;99.90;;;-141.84;95.08;90785.09;5050865;28;20268;-60
2024/03/11 05:52:53;;;;;;;29.30;20.63;;;7.60;99.90;;;-141.84;94.77;91579.72;5040766;28;20222;-59
2024/03/11 05:55:32;;;;;;;24.67;19.27;;;7.60;99.90;;;-141.84;92.53;82319.06;5041689;28;20218;-60
2024/03/11 05:58:08;;;;;;;24.90;20.27;;;7.70;99.90;;;-141.84;87.69;64650.94;5039922;28;20237;-58
2024/03/11 06:00:42;;;;;;;25.43;20.30;;;7.80;99.90;;;-141.84;89.86;72025.13;5041705;28;20206;-59
2024/03/11 06:03:11;;;;;;;25.83;20.60;;;7.90;99.90;;;-141.84;88.05;64650.94;5040547;28;20223;-59
2024/03/11 06:05:43;;;;;;;26.80;20.73;;;7.90;99.90;;;-141.84;90.07;73079.69;5044174;28;20237;-59
2024/03/11 06:08:12;;;;;;;25.13;20.30;;;8.00;99.90;;;-141.84;88.91;70443.78;5042565;28;20217;-58
2024/03/11 06:10:42;;;;;;;25.17;20.77;;;8.00;99.90;;;-141.84;87.93;63072.50;5041528;28;20222;-59
2024/03/11 06:13:10;;;;;;;25.93;19.93;;;8.00;99.90;;;-141.84;88.70;68336.31;5045164;28;20225;-59
2024/03/11 06:15:39;;;;;;;25.73;20.57;;;8.10;99.90;;;-141.84;89.22;71234.38;5042006;28;20264;-59
2024/03/11 06:18:08;;;;;;;23.20;19.10;;;8.10;99.90;;;-141.84;87.37;61757.66;5044648;28;20632;-59
2024/03/11 06:20:36;;;;;;;22.87;18.87;;;8.20;99.90;;;-141.84;88.56;67809.63;5037604;28;20272;-60
2024/03/11 06:23:06;;;;;;;25.23;19.70;;;8.20;99.90;;;-141.84;86.87;59654.75;5038330;28;20222;-59
2024/03/11 06:25:34;;;;;;;21.70;18.73;;;8.30;99.90;;;-141.84;87.79;63861.66;5039146;28;20224;-60
2024/03/11 06:28:05;;;;;;;23.40;19.07;;;8.30;99.90;;;-141.84;86.84;60706.06;5037929;28;20230;-59
2024/03/11 06:30:34;;;;;;;24.77;19.53;;;8.40;99.90;;;-141.84;84.62;48108.81;5040215;28;20221;-59
2024/03/11 06:33:04;;;;;;;22.40;19.13;;;8.50;99.90;;;-141.84;83.66;39001.66;5040483;28;20255;-59
2024/03/11 06:35:35;;;;;;;25.07;20.10;;;8.50;99.90;;;-141.84;83.01;36176.03;5044539;28;20217;-59
2024/03/11 06:38:04;;;;;;;23.30;18.30;;;8.50;99.90;;;-141.84;82.63;30763.28;5048200;28;20309;-60
2024/03/11 06:40:32;;;;;;;23.33;18.90;;;8.50;99.90;;;-141.84;85.13;48632.88;5043231;28;20233;-60
2024/03/11 06:43:00;;;;;;;23.63;19.30;;;8.50;99.90;;;-141.84;81.59;26835.84;5042597;28;20229;-59
2024/03/11 06:45:30;;;;;;;24.00;19.37;;;8.60;99.90;;;-141.84;83.10;35339.38;5041354;28;20222;-62
2024/03/11 06:47:59;;;;;;;22.97;19.13;;;8.60;99.90;;;-141.84;85.87;52565.75;5040891;28;20293;-59
2024/03/11 06:50:27;;;;;;;25.43;18.87;;;8.50;99.90;;;-141.84;86.78;60443.22;5043906;28;20230;-60
2024/03/11 06:52:56;;;;;;;22.00;18.53;;;8.50;99.90;;;-141.84;82.92;33582.94;5044530;28;20256;-59
2024/03/11 06:55:24;;;;;;;23.50;18.60;;;8.60;99.90;;;-141.84;83.66;40233.38;5043138;28;20226;-59
2024/03/11 06:57:52;;;;;;;22.63;18.67;;;8.60;99.90;;;-141.84;81.92;31672.38;5047573;28;20248;-59
2024/03/11 07:00:21;;;;;;;22.53;18.03;;;8.70;99.90;;;-141.84;79.84;21865.03;5040517;28;20284;-59
2024/03/11 07:02:51;;;;;;;19.70;17.00;;;8.80;99.90;;;-141.84;80.90;24828.84;5046151;28;20568;-59
2024/03/11 07:05:26;;;;;;;21.43;17.23;;;8.90;99.90;;;-141.84;81.39;26115.19;5045122;28;20272;-60
2024/03/11 07:07:56;;;;;;;23.33;17.33;;;9.00;99.90;;;-141.84;77.47;19506.97;5043313;28;20304;-61
2024/03/11 07:10:24;;;;;;;20.50;16.47;;;9.20;99.90;;;-141.84;75.35;18706.38;5037062;28;20300;-62
2024/03/11 07:12:53;;;;;;;19.77;15.90;;;9.30;99.90;;;-141.84;75.82;18771.38;5027381;28;20615;-61
2024/03/11 07:15:23;;;;;;;17.43;15.00;;;9.30;99.90;;;-141.84;74.29;18576.31;5029969;28;20197;-62
2024/03/11 07:17:54;;;;;;;17.87;14.93;;;9.50;99.90;;;-141.84;72.41;18470.69;5040005;28;21000;-61
2024/03/11 07:20:24;;;;;;;17.10;14.30;;;9.50;99.90;;;-141.84;72.22;18521.47;5048139;28;20763;-58
2024/03/11 07:22:53;;;;;;;16.70;14.13;;;9.60;99.90;;;-141.84;73.06;18515.38;5042954;28;20221;-61
2024/03/11 07:25:22;;;;;;;17.27;13.73;;;9.60;99.90;;;-141.84;73.42;18582.44;5045712;28;20811;-59
2024/03/11 07:27:50;;;;;;;14.70;13.17;;;9.60;99.90;;;-141.84;70.94;18478.81;5035151;28;20238;-61
2024/03/11 07:30:22;;;;;;;14.17;12.27;;;9.70;99.90;;;-141.84;70.15;18478.81;5025010;28;20947;-61
2024/03/11 07:33:06;;;;;;;14.50;12.77;;;9.80;99.90;;;-141.84;70.83;18527.56;5025669;28;20601;-60
2024/03/11 07:35:37;;;;;;;16.80;13.00;;;9.80;99.90;;;-141.84;70.89;18505.22;5025045;28;20224;-60
2024/03/11 07:38:06;;;;;;;13.63;11.80;;;9.90;99.90;;;-141.84;69.65;18450.38;5036142;28;20225;-59
2024/03/11 07:40:35;;;;;;;13.80;11.63;;;10.00;99.90;;;-141.84;71.04;18505.22;5018680;28;20272;-59
2024/03/11 07:43:06;;;;;;;13.40;11.27;;;9.90;99.90;;;-141.84;71.59;18493.03;5021204;28;20230;-60
2024/03/11 07:45:35;;;;;;;13.27;11.37;;;9.70;99.90;;;-141.84;71.20;18553.97;5019608;28;20256;-58
2024/03/11 07:48:08;;;;;;;12.40;11.10;;;9.70;99.90;;;-141.84;70.50;18486.94;5021847;28;20213;-59
2024/03/11 07:50:38;;;;;;;15.80;11.57;;;9.80;99.90;;;-141.84;69.33;18458.50;5019162;28;20223;-59
2024/03/11 07:53:06;;;;;;;11.67;10.20;;;9.90;99.90;;;-141.84;68.66;18466.63;5023448;28;20238;-60
2024/03/11 07:55:37;;;;;;;11.43;10.27;;;10.00;99.90;;;-141.84;68.75;18480.84;5020867;28;20226;-59
2024/03/11 07:58:06;;;;;;;11.80;10.07;;;10.10;99.90;;;-141.84;67.58;18505.22;5021924;28;20599;-60
2024/03/11 08:00:37;;;;;;;10.97;9.87;;;10.20;99.90;;;-141.84;66.93;18488.97;5024575;28;20202;-60
2024/03/11 08:03:07;;;;;;;11.30;10.10;;;10.20;99.90;;;-141.84;65.97;18493.03;5026654;28;20244;-59
2024/03/11 08:05:36;;;;;;;10.37;9.33;;;10.30;99.90;;;-141.84;65.46;18501.16;5020148;28;20226;-69
2024/03/11 08:08:06;;;;;;;8.97;7.90;;;10.40;99.90;;;-141.84;64.04;18509.28;5022700;28;20277;-71
2024/03/11 08:10:35;;;;;;;9.30;8.30;;;10.50;99.90;;;-141.84;64.45;18505.22;5022425;28;20242;-70
2024/03/11 08:13:04;;;;;;;9.27;7.20;;;10.50;99.90;;;-141.84;63.29;18497.09;5019534;28;20734;-65
2024/03/11 08:15:33;;;;;;;8.07;6.60;;;10.60;99.90;;;-141.84;63.07;18497.09;5030984;28;20206;-67
2024/03/11 08:18:01;;;;;;;7.93;7.10;;;10.60;99.90;;;-141.84;62.44;18499.13;5022403;28;20214;-67
2024/03/11 08:20:31;;;;;;;7.47;6.77;;;10.60;99.90;;;-141.84;63.15;18525.53;5025902;28;20733;-66
2024/03/11 08:22:59;;;;;;;7.07;5.93;;;10.70;99.90;;;-141.84;61.24;18523.50;5029920;28;20233;-61
2024/03/11 08:25:31;;;;;;;6.67;5.33;;;10.80;99.90;;;-141.84;61.59;18503.19;5019927;28;20710;-62
2024/03/11 08:27:59;;;;;;;6.30;5.50;;;10.80;99.90;;;-141.84;61.11;18564.13;5026587;28;20222;-61
2024/03/11 08:30:28;;;;;;;6.53;5.43;;;10.90;99.90;;;-141.84;59.11;18596.66;5029443;28;20194;-61
2024/03/11 08:32:57;;;;;;;4.90;4.30;;;11.20;99.90;;;-141.84;58.01;18586.50;5022099;28;20218;-69
2024/03/11 08:35:26;;;;;;;4.40;4.00;;;11.40;99.90;;;-141.84;58.23;18545.84;5026840;28;20295;-70
2024/03/11 08:37:56;;;;;;;6.60;4.00;;;11.30;99.90;;;-141.84;57.13;18633.22;5028197;28;20276;-62
2024/03/11 08:40:24;;;;;;;3.67;3.20;;;11.30;99.90;;;-141.84;55.94;18659.63;5021017;28;20345;-63
2024/03/11 08:42:53;;;;;;;2.93;2.63;;;11.40;99.90;;;-141.84;56.20;18629.16;5026074;28;20553;-64
2024/03/11 08:45:22;;;;;;;2.97;2.20;;;11.40;99.90;;;-141.84;55.12;18657.59;5022130;28;20281;-71
2024/03/11 08:47:53;;;;;;;2.87;2.10;;;11.40;99.90;;;-141.84;54.56;18659.63;5019166;28;20278;-71
2024/03/11 08:50:22;;;;;;;2.30;2.10;;;11.50;99.90;;;-141.84;54.89;18649.47;5019045;28;20317;-71
2024/03/11 08:52:51;;;;;;;3.20;2.30;;;11.50;99.90;;;-141.84;54.87;18637.28;5020167;28;20222;-64
2024/03/11 08:55:21;;;;;;;6.13;5.53;;;11.40;99.90;;;-141.84;54.86;18710.44;5021184;28;20214;-64
2024/03/11 08:57:50;;;;;;;2.77;2.57;;;11.50;99.90;;;-141.84;54.80;18686.03;5026898;28;21730;-63
2024/03/11 09:00:22;;;;;;;2.50;2.30;;;11.50;99.90;;;-141.84;55.12;18679.94;5020518;28;20289;-63
2024/03/11 09:02:50;;;;;;;2.70;2.50;;;11.60;99.90;;;-141.84;53.56;18722.63;5023887;28;20222;-64
2024/03/11 09:05:19;;;;;;;4.90;2.30;;;11.80;99.90;;;-141.84;52.97;18744.97;5022795;28;20264;-63
2024/03/11 09:07:48;;;;;;;2.60;2.27;;;12.00;99.90;;;-141.84;52.76;18698.22;5021415;28;20769;-71
2024/03/11 09:10:18;;;;;;;2.90;2.17;;;12.10;99.90;;;-141.84;52.49;18740.91;5009775;28;20264;-70
2024/03/11 09:12:49;;;;;;;4.47;2.40;;;12.20;99.90;;;-141.84;52.66;18706.38;5027134;28;20203;-69
2024/03/11 09:15:23;;;;;;;4.20;2.20;;;12.10;99.90;;;-141.84;52.24;18726.69;5052635;28;20247;-65
2024/03/11 09:17:53;;;;;;;2.20;2.00;;;12.10;99.90;;;-141.84;52.33;18720.59;5048732;28;20216;-65
2024/03/11 09:20:27;;;;;;;2.50;2.30;;;12.10;99.90;;;-141.84;52.81;18742.94;5024637;28;20222;-66
2024/03/11 09:22:57;;;;;;;2.73;2.20;;;11.90;99.90;;;-141.84;52.67;18718.56;5020630;28;20213;-65
2024/03/11 09:25:27;;;;;;;2.40;2.20;;;11.90;99.90;;;-141.84;52.71;18738.88;5027194;28;20809;-70
2024/03/11 09:28:00;;;;;;;2.20;2.00;;;12.00;99.90;;;-141.84;52.34;18799.81;5018922;28;20230;-76
2024/03/11 09:30:34;;;;;;;2.33;2.13;;;12.20;99.90;;;-141.84;51.84;18803.88;5018748;28;20230;-64
2024/03/11 09:33:04;;;;;;;2.20;2.00;;;12.30;99.90;;;-141.84;51.09;18771.38;5021229;28;20662;-64
2024/03/11 09:35:32;;;;;;;2.13;2.00;;;12.40;99.90;;;-141.84;51.01;18797.78;5023080;28;20605;-64
2024/03/11 09:38:01;;;;;;;2.30;2.00;;;12.40;99.90;;;-141.84;50.59;18814.03;5018907;28;20471;-64
2024/03/11 09:40:31;;;;;;;2.00;1.80;;;12.40;99.90;;;-141.84;50.51;18799.81;5021073;28;20222;-64
2024/03/11 09:43:03;;;;;;;1.80;1.70;;;12.50;99.90;;;-141.84;50.61;18765.28;5020900;28;20225;-65
2024/03/11 09:45:34;;;;;;;3.80;2.05;;;12.40;99.90;;;-141.84;50.46;18809.97;5018888;28;20560;-64
2024/03/11 09:48:05;;;;;;;1.98;1.88;;;12.50;99.90;;;-141.84;50.22;18834.38;5018971;28;20195;-67
2024/03/11 09:50:37;;;;;;;2.10;2.00;;;12.50;99.90;;;-141.84;50.14;18805.91;5018353;28;20260;-67
2024/03/11 09:53:12;;;;;;;2.13;1.90;;;12.60;99.90;;;-141.84;50.26;18838.44;5017445;28;20682;-68
2024/03/11 09:55:43;;;;;;;1.95;1.85;;;12.50;99.90;;;-141.84;49.98;18826.25;5023535;28;20570;-71
2024/03/11 09:58:18;;;;;;;2.22;2.10;;;12.60;99.90;;;-141.84;49.96;18814.03;5022339;28;20233;-65
2024/03/11 10:00:50;;;;;;;3.20;2.00;;;12.70;99.90;;;-141.84;49.80;18842.50;5022515;28;20285;-66
2024/03/11 10:03:24;;;;;;;1.90;1.73;;;12.70;99.90;;;-141.84;49.37;18854.69;5026586;28;20658;-69
2024/03/11 10:05:57;;;;;;;2.28;2.08;;;12.90;99.90;;;-141.84;49.44;18834.38;5020917;28;20230;-71
2024/03/11 10:08:30;;;;;;;2.47;1.85;;;12.80;99.90;;;-141.84;49.62;18832.34;5024888;28;20266;-71